Stokes, Minnesota
Current Conditions -  °F | °C
As of 3:33 PM on Monday 24 Nov 2014 (Local Time) from KFOZ Reporting Station
Light Snow Light Snow  
Wind Chill:   Ceiling: 1900
Heat Index: 18°   Visibility: 4mi
Dew Point: 10°   Wind: 8mph
Humidity: 73%   Direction: 320°NW
Pressure: 29.65"   Gusts: NA
Location:  47.7637°N, 93.7058°W
Report Text: KFOZ 242133Z AUTO 32007KT 283V343 4SM -SN OVC019 M08/M12 A2965 RMK AO2
Loading
Personal Weather Stations






























Interactive Weather Map New forecast layout! Learn more

10-Day Weather Forecast

Advertisements
Track Severe Weather on mobile